Time;durP1;ratioP1;P1;durP2;ratioP2;P2;SDS_P1;SDS_P2;PMS_P1;PMS_P2;Temp;Humidity;BMP_temperature;BMP_pressure;BME280_temperature;BME280_humidity;BME280_pressure;Samples;Min_cycle;Max_cycle;Signal;HPM_P1;HPM_P2
2022/07/11 00:02:23;;;;;;;3.72;0.70;;;22.30;84.90;;;;;;4990784;28;20041;-83
2022/07/11 00:04:49;;;;;;;2.38;0.50;;;22.20;84.90;;;;;;5001589;28;20112;-83
2022/07/11 00:07:15;;;;;;;1.65;0.60;;;22.20;84.90;;;;;;4996198;28;20512;-83
2022/07/11 00:09:41;;;;;;;4.45;0.60;;;22.20;84.90;;;;;;5017583;28;20036;-83
2022/07/11 00:12:08;;;;;;;5.30;0.70;;;22.20;85.00;;;;;;5002858;28;20439;-83
2022/07/11 00:14:34;;;;;;;1.08;0.50;;;22.20;84.90;;;;;;5010196;28;20048;-84
2022/07/11 00:17:00;;;;;;;1.70;0.43;;;22.20;85.10;;;;;;5012243;28;20109;-83
2022/07/11 00:19:26;;;;;;;2.15;0.60;;;22.20;85.00;;;;;;4995847;28;20106;-83
2022/07/11 00:21:52;;;;;;;1.60;0.50;;;22.10;84.90;;;;;;4999808;28;20061;-84
2022/07/11 00:24:19;;;;;;;2.97;0.70;;;22.20;85.10;;;;;;5026423;28;20496;-83
2022/07/11 00:26:46;;;;;;;2.45;0.70;;;22.10;85.10;;;;;;4999169;28;20022;-83
2022/07/11 00:29:13;;;;;;;3.25;0.63;;;22.10;85.10;;;;;;5001553;28;20026;-84
2022/07/11 00:31:38;;;;;;;2.35;0.60;;;22.10;85.10;;;;;;4995228;28;20867;-83
2022/07/11 00:34:04;;;;;;;0.90;0.50;;;22.10;85.10;;;;;;4994263;28;20026;-83
2022/07/11 00:36:31;;;;;;;1.95;0.70;;;22.10;85.30;;;;;;4997122;28;20494;-83
2022/07/11 00:38:57;;;;;;;3.60;0.60;;;22.10;85.20;;;;;;5022121;28;20030;-84
2022/07/11 00:41:23;;;;;;;2.28;0.70;;;22.10;85.30;;;;;;5003612;28;20473;-83
2022/07/11 00:43:55;;;;;;;1.17;0.50;;;22.10;85.60;;;;;;5001281;28;20033;-83
2022/07/11 00:46:21;;;;;;;1.50;0.50;;;22.10;86.10;;;;;;4998665;28;20032;-84
2022/07/11 00:48:47;;;;;;;1.10;0.60;;;22.10;85.40;;;;;;4989270;28;20125;-84
2022/07/11 00:51:13;;;;;;;1.45;0.50;;;22.10;85.40;;;;;;5007698;28;20116;-84
2022/07/11 00:53:40;;;;;;;2.25;0.57;;;22.10;85.50;;;;;;5001482;28;20030;-83
2022/07/11 00:56:07;;;;;;;1.80;0.65;;;22.10;85.50;;;;;;5004391;28;20056;-83
2022/07/11 00:58:34;;;;;;;1.58;0.60;;;22.00;85.60;;;;;;5000755;28;20461;-83
2022/07/11 01:01:01;;;;;;;2.17;0.63;;;22.00;85.60;;;;;;5003669;28;20501;-83
2022/07/11 01:03:27;;;;;;;1.88;0.70;;;22.00;85.60;;;;;;4994987;28;20021;-83
2022/07/11 01:05:53;;;;;;;0.85;0.60;;;22.00;85.70;;;;;;4996096;28;20513;-83
2022/07/11 01:08:19;;;;;;;1.15;0.60;;;22.00;85.70;;;;;;4999779;28;20022;-83
2022/07/11 01:10:45;;;;;;;1.40;0.60;;;22.00;85.80;;;;;;4995255;28;20025;-83
2022/07/11 01:13:11;;;;;;;1.48;0.55;;;22.00;85.80;;;;;;4994988;28;20065;-84
2022/07/11 01:15:36;;;;;;;1.17;0.60;;;21.90;85.80;;;;;;5014055;28;20137;-83
2022/07/11 01:18:03;;;;;;;2.90;0.60;;;22.00;85.90;;;;;;5001380;28;20029;-84
2022/07/11 01:20:29;;;;;;;0.68;0.35;;;22.00;86.00;;;;;;5020384;28;20022;-83
2022/07/11 01:23:16;;;;;;;1.55;0.73;;;21.90;86.00;;;;;;5014636;28;20029;-83
2022/07/11 01:25:42;;;;;;;2.45;0.82;;;22.00;86.10;;;;;;5003028;28;20065;-83
2022/07/11 01:28:07;;;;;;;1.38;0.63;;;21.90;86.10;;;;;;5003273;28;20025;-84
2022/07/11 01:30:33;;;;;;;3.17;0.68;;;21.90;86.10;;;;;;5027502;28;20040;-83
2022/07/11 01:33:00;;;;;;;1.83;0.52;;;21.90;86.20;;;;;;5021173;28;20108;-83
2022/07/11 01:35:27;;;;;;;3.03;0.90;;;21.90;86.20;;;;;;5009200;28;20048;-84
2022/07/11 01:37:53;;;;;;;1.95;0.60;;;21.90;86.30;;;;;;5024635;28;20049;-84
2022/07/11 01:40:19;;;;;;;1.17;0.60;;;21.90;86.40;;;;;;5005229;28;20084;-83
2022/07/11 01:42:45;;;;;;;1.15;0.63;;;21.90;86.40;;;;;;5032563;28;20388;-83
2022/07/11 01:45:12;;;;;;;1.90;0.60;;;21.90;86.40;;;;;;5007588;28;20026;-83
2022/07/11 01:47:38;;;;;;;1.95;0.40;;;21.90;86.50;;;;;;5001802;28;20064;-84
2022/07/11 01:50:05;;;;;;;0.98;0.50;;;21.90;86.50;;;;;;5023087;28;20092;-83
2022/07/11 01:52:31;;;;;;;2.53;0.70;;;21.90;86.60;;;;;;5019377;28;20022;-83
2022/07/11 01:54:57;;;;;;;1.52;0.47;;;21.90;86.60;;;;;;5017673;28;20083;-83
2022/07/11 01:57:22;;;;;;;1.45;0.50;;;21.90;86.70;;;;;;5019774;28;20026;-83
2022/07/11 01:59:48;;;;;;;2.63;0.52;;;21.90;86.80;;;;;;4999060;28;20029;-83
2022/07/11 02:02:14;;;;;;;1.13;0.60;;;21.90;86.80;;;;;;4999699;28;20034;-84
2022/07/11 02:04:40;;;;;;;0.80;0.50;;;21.80;86.90;;;;;;4999903;28;20129;-83
2022/07/11 02:07:06;;;;;;;2.65;0.60;;;21.80;86.90;;;;;;5007256;28;20037;-84
2022/07/11 02:09:32;;;;;;;2.15;0.70;;;21.80;86.90;;;;;;4997421;28;20030;-84
2022/07/11 02:11:58;;;;;;;1.25;0.40;;;21.80;86.90;;;;;;5002731;28;20048;-83
2022/07/11 02:14:24;;;;;;;1.45;0.65;;;21.80;87.00;;;;;;4997750;28;20394;-83
2022/07/11 02:16:49;;;;;;;1.33;0.57;;;21.80;87.10;;;;;;5015513;28;20408;-83
2022/07/11 02:19:15;;;;;;;2.92;0.80;;;21.80;87.10;;;;;;5019513;28;20022;-83
2022/07/11 02:21:41;;;;;;;2.55;0.52;;;21.80;87.20;;;;;;5001252;28;20025;-84
2022/07/11 02:24:08;;;;;;;2.22;0.50;;;21.70;87.20;;;;;;5001646;28;20485;-83
2022/07/11 02:26:34;;;;;;;1.50;0.70;;;21.70;87.30;;;;;;5003961;28;20052;-83
2022/07/11 02:29:00;;;;;;;2.83;0.60;;;21.80;87.30;;;;;;5002861;28;20026;-83
2022/07/11 02:31:25;;;;;;;0.90;0.50;;;21.80;87.40;;;;;;4993184;28;20029;-84
2022/07/11 02:33:51;;;;;;;1.77;0.60;;;21.80;87.50;;;;;;4997802;28;20025;-83
2022/07/11 02:36:16;;;;;;;0.85;0.55;;;21.70;88.20;;;;;;5013467;28;20166;-83
2022/07/11 02:38:42;;;;;;;3.25;0.68;;;21.70;87.50;;;;;;4998603;28;20394;-83
2022/07/11 02:41:08;;;;;;;2.25;0.63;;;21.70;87.70;;;;;;5000626;28;20080;-83
2022/07/11 02:43:34;;;;;;;4.65;0.80;;;21.70;87.70;;;;;;5023608;28;20101;-83
2022/07/11 02:46:00;;;;;;;1.52;0.50;;;21.70;87.70;;;;;;4997274;28;20096;-83
2022/07/11 02:48:26;;;;;;;1.30;0.60;;;21.70;87.90;;;;;;5000605;28;20028;-83
2022/07/11 02:50:51;;;;;;;3.53;0.95;;;21.70;87.90;;;;;;5006638;28;20478;-84
2022/07/11 02:53:17;;;;;;;1.02;0.55;;;21.70;87.90;;;;;;5014841;28;20037;-84
2022/07/11 02:55:43;;;;;;;1.80;0.50;;;21.70;88.00;;;;;;5019099;28;20473;-83
2022/07/11 02:58:09;;;;;;;0.90;0.45;;;21.60;88.00;;;;;;4997300;28;20382;-83
2022/07/11 03:00:35;;;;;;;1.23;0.60;;;21.70;88.10;;;;;;5002213;28;20466;-83
2022/07/11 03:03:01;;;;;;;1.75;0.68;;;21.60;88.10;;;;;;4996438;28;20057;-83
2022/07/11 03:05:27;;;;;;;0.70;0.50;;;21.60;88.20;;;;;;4997302;28;20030;-83
2022/07/11 03:07:53;;;;;;;1.70;0.68;;;21.60;88.30;;;;;;4996431;28;20033;-84
2022/07/11 03:10:18;;;;;;;2.17;0.70;;;21.60;88.40;;;;;;4998407;28;20084;-83
2022/07/11 03:12:45;;;;;;;1.58;0.70;;;21.60;88.40;;;;;;5013375;28;20073;-83
2022/07/11 03:15:11;;;;;;;2.72;0.50;;;21.60;88.50;;;;;;5001587;28;20048;-84
2022/07/11 03:17:37;;;;;;;1.42;0.73;;;21.60;88.60;;;;;;5023010;28;20076;-84
2022/07/11 03:20:05;;;;;;;1.33;0.70;;;21.60;88.70;;;;;;4996636;28;20076;-83
2022/07/11 03:22:31;;;;;;;2.45;0.80;;;21.60;88.70;;;;;;4996434;28;20068;-84
2022/07/11 03:24:57;;;;;;;1.60;0.70;;;21.50;89.50;;;;;;4997618;28;20061;-83
2022/07/11 03:27:22;;;;;;;0.98;0.68;;;21.60;88.90;;;;;;5002516;28;20026;-83
2022/07/11 03:29:48;;;;;;;1.48;0.50;;;21.60;88.90;;;;;;5014207;28;20025;-83
2022/07/11 03:32:14;;;;;;;1.25;0.60;;;21.50;89.00;;;;;;5013477;28;20084;-84
2022/07/11 03:34:40;;;;;;;1.25;0.70;;;21.60;89.10;;;;;;5014747;28;20029;-83
2022/07/11 03:37:06;;;;;;;1.88;0.70;;;21.50;89.10;;;;;;4994039;28;20068;-84
2022/07/11 03:39:32;;;;;;;2.03;0.70;;;21.50;89.20;;;;;;4992796;28;20026;-84
2022/07/11 03:41:58;;;;;;;1.40;0.68;;;21.50;89.20;;;;;;4997602;28;20080;-83
2022/07/11 03:44:24;;;;;;;1.58;0.80;;;21.50;89.20;;;;;;4996542;28;20026;-83
2022/07/11 03:46:50;;;;;;;2.15;0.65;;;21.50;89.40;;;;;;4995862;28;20029;-84
2022/07/11 03:49:15;;;;;;;1.35;0.73;;;21.50;89.40;;;;;;4996156;28;20030;-83
2022/07/11 03:51:42;;;;;;;2.08;0.60;;;21.50;89.40;;;;;;5005922;28;20021;-83
2022/07/11 03:54:07;;;;;;;1.38;0.70;;;21.50;89.50;;;;;;5023281;28;20440;-83
2022/07/11 03:56:33;;;;;;;0.95;0.63;;;21.50;89.60;;;;;;4996153;28;20028;-83
2022/07/11 03:58:59;;;;;;;1.60;0.95;;;21.50;89.60;;;;;;4995858;28;20030;-83
2022/07/11 04:01:24;;;;;;;1.35;0.68;;;21.50;89.70;;;;;;5005304;28;20492;-83
2022/07/11 04:03:50;;;;;;;1.92;0.70;;;21.50;89.80;;;;;;5014208;28;20511;-83
2022/07/11 04:06:16;;;;;;;1.42;0.65;;;21.50;89.80;;;;;;4994599;28;20038;-83
2022/07/11 04:08:42;;;;;;;1.73;0.88;;;21.50;89.80;;;;;;4995639;28;20456;-83
2022/07/11 04:11:08;;;;;;;1.33;0.80;;;21.50;90.00;;;;;;4997752;28;20025;-83
2022/07/11 04:13:34;;;;;;;1.08;0.80;;;21.40;89.90;;;;;;4995390;28;20075;-83
2022/07/11 04:15:59;;;;;;;2.47;0.60;;;21.50;90.00;;;;;;4987463;28;20049;-83
2022/07/11 04:18:25;;;;;;;3.72;0.80;;;21.50;90.00;;;;;;5012699;28;20033;-83
2022/07/11 04:20:52;;;;;;;1.50;0.70;;;21.50;90.00;;;;;;5015844;28;20025;-84
2022/07/11 04:23:18;;;;;;;1.42;0.60;;;21.40;90.00;;;;;;5010417;28;20037;-84
2022/07/11 04:25:43;;;;;;;2.00;0.88;;;21.40;90.00;;;;;;5019960;28;20037;-83
2022/07/11 04:28:09;;;;;;;2.47;0.93;;;21.40;90.00;;;;;;5013862;28;20026;-84
2022/07/11 04:30:35;;;;;;;0.88;0.60;;;21.40;90.10;;;;;;5001601;28;20389;-84
2022/07/11 04:33:01;;;;;;;1.25;0.70;;;21.40;90.10;;;;;;5011311;28;20172;-84
2022/07/11 04:35:27;;;;;;;1.73;0.90;;;21.40;90.10;;;;;;5012534;28;20492;-83
2022/07/11 04:37:54;;;;;;;1.30;0.90;;;21.40;90.10;;;;;;4995177;28;20029;-83
2022/07/11 04:40:23;;;;;;;1.70;0.80;;;21.40;90.20;;;;;;5003210;28;20026;-83
2022/07/11 04:42:49;;;;;;;2.70;0.90;;;21.40;90.20;;;;;;4999046;28;20048;-83
2022/07/11 04:45:15;;;;;;;3.60;1.00;;;21.40;90.20;;;;;;5012783;28;20037;-83
2022/07/11 04:47:41;;;;;;;1.85;0.60;;;21.40;90.20;;;;;;4986193;28;20390;-84
2022/07/11 04:50:08;;;;;;;1.33;0.90;;;21.40;90.20;;;;;;5014060;28;20104;-83
2022/07/11 04:52:34;;;;;;;1.58;0.80;;;21.40;90.20;;;;;;4999794;28;20034;-83
2022/07/11 04:54:59;;;;;;;3.22;0.90;;;21.40;90.30;;;;;;5016744;28;20068;-83
2022/07/11 04:57:26;;;;;;;1.77;0.80;;;21.40;90.30;;;;;;5025019;28;20025;-83
2022/07/11 04:59:51;;;;;;;1.58;0.80;;;21.40;90.30;;;;;;5016649;28;20466;-83
2022/07/11 05:02:17;;;;;;;2.95;0.85;;;21.40;90.30;;;;;;4999467;28;20034;-83
2022/07/11 05:04:43;;;;;;;2.95;0.90;;;21.40;90.30;;;;;;5004922;28;20022;-83
2022/07/11 05:07:09;;;;;;;1.08;0.70;;;21.40;90.30;;;;;;5001382;28;20382;-83
2022/07/11 05:09:35;;;;;;;1.95;0.90;;;21.40;90.30;;;;;;5000171;28;20037;-83
2022/07/11 05:12:01;;;;;;;1.77;0.75;;;21.40;90.30;;;;;;5006099;28;20026;-83
2022/07/11 05:14:26;;;;;;;1.38;0.90;;;21.40;90.30;;;;;;5014636;28;20401;-83
2022/07/11 05:16:52;;;;;;;2.75;0.95;;;21.50;90.40;;;;;;5016093;28;20065;-84
2022/07/11 05:19:18;;;;;;;1.13;0.85;;;21.50;90.40;;;;;;4991114;28;20030;-83
2022/07/11 05:21:43;;;;;;;2.30;0.98;;;21.50;90.40;;;;;;5000610;28;20033;-83
2022/07/11 05:24:09;;;;;;;2.85;0.93;;;21.50;90.40;;;;;;4997585;28;20129;-84
2022/07/11 05:26:36;;;;;;;1.23;0.90;;;21.50;90.40;;;;;;5012847;28;20029;-83
2022/07/11 05:29:01;;;;;;;2.17;0.95;;;21.40;90.40;;;;;;5024298;28;20025;-83
2022/07/11 05:31:27;;;;;;;1.58;0.85;;;21.50;90.50;;;;;;5020410;28;20091;-83
2022/07/11 05:33:53;;;;;;;2.65;0.88;;;21.50;90.50;;;;;;5005351;28;20113;-83
2022/07/11 05:36:19;;;;;;;1.90;0.98;;;21.50;90.50;;;;;;5014575;28;20536;-83
2022/07/11 05:38:45;;;;;;;3.15;0.90;;;21.50;90.50;;;;;;4998531;28;20117;-83
2022/07/11 05:41:10;;;;;;;2.67;0.98;;;21.50;90.60;;;;;;5002848;28;20022;-84
2022/07/11 05:43:36;;;;;;;1.83;0.90;;;21.50;90.50;;;;;;5018729;28;20034;-83
2022/07/11 05:46:05;;;;;;;2.42;1.00;;;21.50;90.60;;;;;;5003688;28;20524;-83
2022/07/11 05:48:31;;;;;;;1.05;0.77;;;21.50;90.60;;;;;;4998134;28;20053;-84
2022/07/11 05:50:56;;;;;;;1.40;1.00;;;21.50;90.60;;;;;;4995151;28;20064;-83
2022/07/11 05:53:22;;;;;;;1.95;1.00;;;21.50;90.70;;;;;;4998107;28;20397;-83
2022/07/11 05:55:48;;;;;;;1.77;0.93;;;21.50;90.70;;;;;;4993427;28;20022;-84
2022/07/11 05:58:13;;;;;;;1.65;1.00;;;21.50;90.70;;;;;;4997582;28;20033;-83
2022/07/11 06:00:39;;;;;;;1.30;0.90;;;21.50;90.70;;;;;;4996548;28;20029;-83
2022/07/11 06:03:05;;;;;;;5.25;1.00;;;21.50;90.80;;;;;;5000209;28;20083;-83
2022/07/11 06:05:30;;;;;;;1.92;0.95;;;21.50;90.80;;;;;;4997257;28;20029;-83
2022/07/11 06:10:40;;;;;;;1.23;0.80;;;21.50;90.80;;;;;;5018909;28;20037;-84
2022/07/11 06:13:06;;;;;;;1.83;1.05;;;21.60;90.80;;;;;;5005168;28;20398;-83
2022/07/11 06:15:32;;;;;;;2.42;0.98;;;21.50;90.80;;;;;;4996828;28;20103;-83
2022/07/11 06:17:57;;;;;;;2.40;1.10;;;21.60;90.80;;;;;;5014745;28;20045;-83
2022/07/11 06:20:23;;;;;;;5.95;1.95;;;21.60;91.10;;;;;;5006103;28;20101;-83
2022/07/11 06:22:49;;;;;;;4.35;1.85;;;21.20;93.00;;;;;;4997499;28;20030;-83
2022/07/11 06:25:15;;;;;;;2.83;1.83;;;20.80;93.70;;;;;;4999816;28;20022;-83
2022/07/11 06:27:40;;;;;;;6.72;2.17;;;20.60;94.30;;;;;;4999323;28;20135;-83
2022/07/11 06:30:06;;;;;;;6.07;2.47;;;20.10;95.10;;;;;;5014506;28;22009;-83
2022/07/11 06:32:32;;;;;;;3.88;1.98;;;19.80;95.70;;;;;;5006809;28;20112;-83
2022/07/11 06:34:58;;;;;;;4.15;2.47;;;19.50;96.30;;;;;;5004447;28;20123;-83
2022/07/11 06:37:23;;;;;;;8.05;2.10;;;19.10;97.00;;;;;;5001941;28;20026;-82
2022/07/11 06:39:49;;;;;;;6.78;1.98;;;19.10;97.30;;;;;;4997270;28;20024;-83
2022/07/11 06:42:15;;;;;;;9.93;1.90;;;19.30;97.20;;;;;;4996652;28;20061;-83
2022/07/11 06:44:41;;;;;;;3.03;1.85;;;19.50;96.80;;;;;;4997307;28;20029;-83
2022/07/11 06:47:06;;;;;;;2.58;1.60;;;19.70;96.60;;;;;;4998573;28;20072;-84
2022/07/11 06:49:32;;;;;;;7.60;1.80;;;19.50;96.50;;;;;;5021954;28;20030;-83
2022/07/11 06:51:58;;;;;;;4.35;1.55;;;19.70;96.30;;;;;;5013302;28;20025;-83
2022/07/11 06:54:24;;;;;;;3.38;1.20;;;20.00;96.00;;;;;;5014199;28;20476;-83
2022/07/11 06:56:49;;;;;;;6.95;1.30;;;20.20;95.60;;;;;;5014585;28;20084;-84
2022/07/11 06:59:15;;;;;;;3.22;1.27;;;20.40;95.30;;;;;;4998742;28;20018;-84
2022/07/11 07:01:41;;;;;;;3.65;1.02;;;20.60;95.00;;;;;;5013830;28;20024;-84
2022/07/11 07:04:06;;;;;;;1.95;1.27;;;20.80;94.90;;;;;;4997128;28;20049;-84
2022/07/11 07:06:32;;;;;;;3.45;1.02;;;20.80;94.50;;;;;;5016025;28;20065;-83
2022/07/11 07:08:58;;;;;;;4.07;1.10;;;20.90;94.40;;;;;;4998776;28;20022;-83
2022/07/11 07:11:23;;;;;;;3.35;1.00;;;21.00;94.20;;;;;;5012671;28;20036;-84
2022/07/11 07:13:50;;;;;;;2.88;1.20;;;21.10;94.10;;;;;;4994874;28;20026;-84
2022/07/11 07:16:16;;;;;;;2.10;1.05;;;21.10;94.00;;;;;;5010747;28;20041;-84
2022/07/11 07:18:45;;;;;;;5.25;1.10;;;21.20;93.90;;;;;;4992423;28;20120;-85
2022/07/11 07:21:11;;;;;;;3.60;1.38;;;21.20;93.80;;;;;;4993057;28;20030;-84
2022/07/11 07:23:37;;;;;;;3.90;1.00;;;21.30;93.70;;;;;;5011469;28;20040;-84
2022/07/11 07:26:03;;;;;;;3.42;1.17;;;21.30;93.60;;;;;;5009760;28;20056;-84
2022/07/11 07:28:30;;;;;;;1.60;0.85;;;21.40;93.60;;;;;;4989459;28;20443;-84
2022/07/11 07:30:56;;;;;;;4.15;1.10;;;21.40;93.50;;;;;;4996434;28;20443;-85
2022/07/11 07:33:22;;;;;;;1.60;0.98;;;21.40;93.40;;;;;;4996187;28;20022;-84
2022/07/11 07:35:47;;;;;;;3.72;0.98;;;21.50;93.40;;;;;;5011046;28;20030;-85
2022/07/11 07:38:13;;;;;;;1.70;0.90;;;21.50;93.30;;;;;;4996277;28;20117;-85
2022/07/11 07:40:39;;;;;;;2.50;0.90;;;21.50;93.30;;;;;;4995823;28;20026;-85
2022/07/11 07:43:06;;;;;;;2.65;1.00;;;21.50;93.20;;;;;;4994707;28;20037;-84
2022/07/11 07:45:32;;;;;;;1.95;0.82;;;21.50;93.20;;;;;;4993634;28;20034;-85
2022/07/11 07:47:58;;;;;;;2.00;0.82;;;21.50;93.10;;;;;;4995530;28;20044;-85
2022/07/11 07:50:24;;;;;;;1.77;1.00;;;21.50;93.10;;;;;;5003337;28;20025;-84
2022/07/11 07:52:50;;;;;;;2.00;0.90;;;21.60;93.20;;;;;;4994788;28;20033;-85
2022/07/11 07:55:16;;;;;;;1.90;0.88;;;21.60;93.50;;;;;;5005966;28;20022;-85
2022/07/11 07:57:42;;;;;;;1.20;0.80;;;21.60;93.20;;;;;;4993354;28;20036;-85
2022/07/11 08:02:52;;;;;;;2.30;0.85;;;21.60;93.20;;;;;;5013305;28;20139;-85
2022/07/11 08:05:18;;;;;;;3.13;0.80;;;21.50;93.10;;;;;;4997001;28;20492;-86
2022/07/11 08:07:44;;;;;;;1.00;0.90;;;21.50;93.10;;;;;;5000236;28;20041;-85
2022/07/11 08:10:11;;;;;;;1.23;0.80;;;21.50;93.10;;;;;;4992328;28;20025;-86
2022/07/11 08:12:37;;;;;;;1.35;0.80;;;21.50;93.10;;;;;;5009987;28;20032;-85
2022/07/11 08:15:02;;;;;;;1.83;0.65;;;21.60;93.10;;;;;;5013302;28;20045;-85
2022/07/11 08:17:29;;;;;;;1.00;0.60;;;21.60;93.10;;;;;;4995277;28;20049;-85
2022/07/11 08:19:55;;;;;;;2.42;0.77;;;21.60;93.10;;;;;;4994470;28;20430;-85
2022/07/11 08:22:20;;;;;;;3.05;0.90;;;21.60;93.00;;;;;;4998761;28;20060;-86
2022/07/11 08:24:46;;;;;;;2.58;0.70;;;21.60;92.90;;;;;;4993530;28;20022;-85
2022/07/11 08:27:12;;;;;;;2.50;0.50;;;21.60;92.80;;;;;;4995336;28;20030;-82
2022/07/11 08:29:37;;;;;;;6.47;0.52;;;21.70;91.80;;;;;;4994742;28;20065;-85
2022/07/11 08:32:03;;;;;;;5.85;0.45;;;21.80;91.50;;;;;;4996346;28;20057;-85
2022/07/11 08:34:29;;;;;;;1.25;0.40;;;21.90;91.50;;;;;;5004999;28;20041;-85
2022/07/11 08:36:55;;;;;;;1.08;0.40;;;22.00;91.70;;;;;;4994841;28;20018;-85
2022/07/11 08:39:20;;;;;;;1.52;0.40;;;22.10;91.30;;;;;;5009083;28;20026;-85
2022/07/11 08:41:46;;;;;;;1.45;0.50;;;22.20;91.10;;;;;;5002042;28;20034;-85
2022/07/11 08:44:12;;;;;;;2.40;0.40;;;22.40;91.00;;;;;;4994485;28;20033;-85
2022/07/11 08:46:40;;;;;;;2.25;0.40;;;22.40;90.90;;;;;;4996979;28;20095;-85
2022/07/11 08:49:06;;;;;;;2.33;0.40;;;22.50;90.80;;;;;;5003634;28;20095;-85
2022/07/11 08:51:32;;;;;;;1.80;0.43;;;22.50;90.80;;;;;;4997528;28;20025;-85
2022/07/11 08:53:58;;;;;;;1.42;0.50;;;22.60;90.70;;;;;;4995475;28;20161;-85
2022/07/11 08:56:27;;;;;;;1.13;0.30;;;22.60;90.70;;;;;;4995006;28;20029;-85
2022/07/11 08:58:53;;;;;;;0.80;0.40;;;22.60;90.60;;;;;;5012334;28;20433;-85
2022/07/11 09:01:24;;;;;;;0.73;0.30;;;22.70;90.50;;;;;;4992311;28;20467;-85
2022/07/11 09:03:50;;;;;;;0.90;0.45;;;22.70;90.50;;;;;;4991077;28;20022;-85
2022/07/11 09:06:15;;;;;;;0.30;0.25;;;22.70;90.40;;;;;;4996420;28;20079;-85
2022/07/11 09:08:41;;;;;;;1.50;0.43;;;22.80;90.40;;;;;;5017172;28;20101;-85
2022/07/11 09:11:08;;;;;;;1.42;0.38;;;22.80;90.30;;;;;;5012569;28;20097;-85
2022/07/11 09:13:34;;;;;;;0.80;0.30;;;22.90;90.40;;;;;;4994880;28;20109;-85
2022/07/11 09:16:07;;;;;;;1.88;0.40;;;22.90;90.40;;;;;;5029616;28;20452;-84
2022/07/11 09:18:41;;;;;;;1.25;0.35;;;22.90;90.30;;;;;;4994795;28;20478;-85
2022/07/11 09:26:42;;;;;;;0.60;0.35;;;23.10;90.10;;;;;;5010383;28;20500;-85
2022/07/11 09:29:27;;;;;;;0.57;0.40;;;23.10;90.10;;;;;;4996194;28;20141;-85
2022/07/11 09:31:53;;;;;;;1.95;0.50;;;23.10;90.10;;;;;;4988458;28;20040;-85
2022/07/11 09:34:20;;;;;;;2.67;0.40;;;23.10;90.10;;;;;;4980729;28;20029;-84
2022/07/11 09:36:52;;;;;;;3.42;0.55;;;23.10;90.10;;;;;;4994242;28;20022;-85
2022/07/11 09:39:20;;;;;;;0.60;0.40;;;23.10;90.10;;;;;;4994541;28;20022;-85
2022/07/11 09:41:47;;;;;;;2.30;0.40;;;23.10;90.10;;;;;;4999442;28;20470;-85
2022/07/11 09:44:26;;;;;;;1.08;0.47;;;23.10;90.10;;;;;;5022367;28;20105;-85
2022/07/11 09:46:53;;;;;;;2.65;0.50;;;23.20;90.10;;;;;;4996914;28;20030;-85
2022/07/11 09:49:38;;;;;;;0.50;0.50;;;23.20;90.40;;;;;;5015719;28;20032;-85
2022/07/11 09:52:14;;;;;;;0.60;0.40;;;23.20;90.00;;;;;;5007387;28;20030;-84
2022/07/11 09:54:56;;;;;;;1.40;0.50;;;23.20;90.00;;;;;;5014713;28;20487;-84
2022/07/11 09:57:32;;;;;;;0.68;0.50;;;23.30;90.00;;;;;;5013798;28;20049;-84
2022/07/11 09:59:59;;;;;;;1.23;0.50;;;23.30;89.90;;;;;;4994589;28;20510;-84
2022/07/11 10:02:25;;;;;;;0.75;0.50;;;23.30;89.90;;;;;;5002501;28;20034;-84
2022/07/11 10:04:52;;;;;;;1.52;0.47;;;23.40;89.90;;;;;;4992272;28;20602;-85
2022/07/11 10:07:18;;;;;;;0.65;0.55;;;23.40;89.70;;;;;;5001601;28;20064;-85
2022/07/11 10:09:44;;;;;;;0.70;0.50;;;23.40;89.60;;;;;;4998807;28;20046;-85
2022/07/11 10:12:09;;;;;;;0.45;0.38;;;23.40;89.50;;;;;;4993650;28;20460;-84
2022/07/11 10:14:37;;;;;;;1.08;0.50;;;23.30;89.50;;;;;;4996429;28;20042;-84
2022/07/11 10:17:12;;;;;;;0.55;0.38;;;23.30;89.50;;;;;;4997963;28;20037;-84
2022/07/11 10:19:50;;;;;;;0.73;0.50;;;23.30;89.80;;;;;;4996211;28;20026;-84
2022/07/11 10:22:51;;;;;;;0.68;0.68;;;23.30;89.80;;;;;;4994932;28;20026;-84
2022/07/11 10:25:25;;;;;;;1.52;0.60;;;23.30;89.80;;;;;;5006846;28;20026;-85
2022/07/11 10:28:08;;;;;;;0.60;0.40;;;23.40;89.70;;;;;;5004127;28;20068;-85
2022/07/11 10:30:45;;;;;;;1.38;0.50;;;23.40;89.70;;;;;;4996625;28;20037;-84
2022/07/11 10:33:10;;;;;;;0.70;0.60;;;23.40;89.70;;;;;;5021805;28;20029;-84
2022/07/11 10:35:40;;;;;;;0.85;0.70;;;23.40;89.60;;;;;;5019930;28;20033;-84
2022/07/11 10:38:06;;;;;;;1.58;0.60;;;23.40;89.70;;;;;;5001820;28;20088;-84
2022/07/11 10:40:49;;;;;;;0.82;0.50;;;23.40;89.80;;;;;;4997449;28;20385;-84
2022/07/11 10:43:22;;;;;;;0.73;0.60;;;23.30;89.70;;;;;;4996306;28;20028;-84
2022/07/11 10:45:59;;;;;;;1.70;0.60;;;23.30;89.80;;;;;;4997120;28;20075;-84
2022/07/11 10:48:26;;;;;;;2.08;0.50;;;23.30;89.90;;;;;;4997013;28;20548;-84
2022/07/11 10:51:09;;;;;;;1.85;0.57;;;23.30;90.00;;;;;;4996876;28;20132;-84
2022/07/11 10:53:50;;;;;;;1.63;0.70;;;23.40;88.50;;;;;;5009825;28;20505;-84
2022/07/11 10:56:50;;;;;;;1.40;0.60;;;23.30;88.70;;;;;;5005648;28;20080;-84
2022/07/11 10:59:17;;;;;;;0.80;0.68;;;23.30;89.20;;;;;;4995795;28;20080;-84
2022/07/11 11:02:12;;;;;;;2.63;0.60;;;23.30;89.40;;;;;;5001342;28;20032;-85
2022/07/11 11:04:45;;;;;;;4.10;0.60;;;23.30;89.40;;;;;;5013924;28;20034;-84
2022/07/11 11:07:29;;;;;;;1.25;0.40;;;23.30;89.30;;;;;;5018497;28;20434;-84
2022/07/11 11:09:55;;;;;;;1.58;0.65;;;23.30;89.40;;;;;;5010418;28;20394;-84
2022/07/11 11:12:40;;;;;;;1.20;0.70;;;23.30;89.50;;;;;;5018692;28;20068;-84
2022/07/11 11:15:54;;;;;;;0.93;0.60;;;23.40;89.40;;;;;;4997072;28;20044;-84
2022/07/11 11:18:23;;;;;;;2.55;0.70;;;23.30;89.50;;;;;;4993947;28;20033;-83
2022/07/11 11:21:09;;;;;;;1.33;0.60;;;23.40;89.50;;;;;;5001097;28;20041;-84
2022/07/11 11:23:36;;;;;;;1.20;0.70;;;23.40;89.60;;;;;;4985621;28;20037;-85
2022/07/11 11:26:06;;;;;;;1.05;0.60;;;23.40;89.30;;;;;;4996817;28;20499;-84
2022/07/11 11:28:32;;;;;;;1.05;0.70;;;23.40;89.40;;;;;;4996892;28;20030;-83
2022/07/11 11:31:00;;;;;;;1.23;0.60;;;23.50;89.40;;;;;;5013201;28;20029;-84
2022/07/11 11:33:28;;;;;;;0.75;0.60;;;23.50;89.10;;;;;;4994810;28;20026;-84
2022/07/11 11:36:05;;;;;;;1.30;0.60;;;23.50;89.20;;;;;;4996428;28;20505;-84
2022/07/11 11:38:41;;;;;;;0.95;0.80;;;23.50;89.10;;;;;;5001428;28;20613;-84
2022/07/11 11:41:08;;;;;;;1.42;0.60;;;23.50;89.10;;;;;;5008437;28;20025;-84
2022/07/11 11:43:35;;;;;;;0.70;0.57;;;23.60;89.10;;;;;;5004957;28;20116;-84
2022/07/11 11:46:04;;;;;;;2.65;0.68;;;23.60;89.20;;;;;;4996555;28;20034;-84
2022/07/11 11:48:32;;;;;;;0.80;0.50;;;23.50;89.20;;;;;;5003924;28;20030;-84
2022/07/11 11:51:08;;;;;;;0.73;0.55;;;23.50;89.30;;;;;;5003112;28;20030;-84
2022/07/11 11:53:46;;;;;;;1.27;0.70;;;23.50;89.40;;;;;;4993872;28;20030;-84
2022/07/11 11:56:29;;;;;;;0.80;0.60;;;23.50;89.50;;;;;;5014480;28;20417;-84
2022/07/11 11:59:15;;;;;;;2.45;0.68;;;23.50;89.50;;;;;;4999684;28;20040;-83
2022/07/11 12:01:46;;;;;;;0.98;0.60;;;23.50;89.30;;;;;;4983264;28;20057;-83
2022/07/11 12:04:16;;;;;;;1.23;0.65;;;23.50;89.30;;;;;;5012014;28;20033;-84
2022/07/11 12:06:45;;;;;;;1.38;0.68;;;23.50;89.20;;;;;;4994130;28;20116;-84
2022/07/11 12:14:51;;;;;;;0.88;0.60;;;23.60;89.30;;;;;;5006707;28;20052;-84
2022/07/11 12:17:26;;;;;;;1.10;0.60;;;23.60;89.30;;;;;;4994427;28;20093;-84
2022/07/11 12:19:53;;;;;;;1.05;0.60;;;23.60;89.20;;;;;;4999494;28;20378;-84
2022/07/11 12:22:19;;;;;;;2.85;0.63;;;23.60;89.30;;;;;;4979505;28;20122;-84
2022/07/11 12:24:49;;;;;;;2.58;0.65;;;23.60;89.30;;;;;;4994734;28;20034;-84
2022/07/11 12:27:20;;;;;;;1.02;0.50;;;23.50;89.40;;;;;;4980479;28;20076;-84
2022/07/11 12:29:50;;;;;;;1.05;0.77;;;23.50;89.50;;;;;;5000020;28;20026;-84
2022/07/11 12:32:21;;;;;;;2.42;0.70;;;23.60;89.50;;;;;;4991418;28;20061;-84
2022/07/11 12:34:49;;;;;;;0.60;0.57;;;23.60;89.70;;;;;;4981535;28;20026;-84
2022/07/11 12:37:19;;;;;;;0.60;0.60;;;23.50;89.60;;;;;;4995094;28;20434;-84
2022/07/11 12:39:53;;;;;;;2.55;0.70;;;23.50;89.60;;;;;;4973483;28;20018;-84
2022/07/11 12:42:33;;;;;;;2.88;0.60;;;23.50;89.80;;;;;;4975406;28;20417;-84
2022/07/11 12:45:09;;;;;;;1.05;0.50;;;23.50;89.90;;;;;;4982587;28;20037;-84
2022/07/11 12:47:36;;;;;;;0.93;0.60;;;23.50;89.90;;;;;;4968708;28;20031;-84
2022/07/11 12:50:15;;;;;;;1.33;0.70;;;23.50;89.80;;;;;;4974132;28;20030;-84
2022/07/11 12:52:47;;;;;;;1.77;0.70;;;23.50;89.80;;;;;;4976627;28;20033;-84
2022/07/11 12:55:30;;;;;;;1.67;0.63;;;23.50;89.80;;;;;;4990034;28;20367;-85
2022/07/11 12:58:08;;;;;;;0.65;0.50;;;23.60;89.70;;;;;;4985740;28;20070;-85
2022/07/11 13:00:42;;;;;;;2.70;0.73;;;23.70;89.30;;;;;;4979605;28;20033;-85
2022/07/11 13:03:07;;;;;;;6.78;0.73;;;23.90;89.00;;;;;;4995394;28;20035;-85
2022/07/11 13:05:50;;;;;;;1.42;0.50;;;24.00;88.80;;;;;;4983221;28;20156;-85
2022/07/11 13:08:42;;;;;;;1.15;0.70;;;24.20;88.20;;;;;;4986855;28;20366;-85
2022/07/11 13:11:19;;;;;;;2.05;0.73;;;24.20;87.80;;;;;;4969903;28;20058;-85